sensor_id;sensor_type;location;lat;lon;timestamp;P1;durP1;ratioP1;P2;durP2;ratioP2
6306;SDS011;3186;54.062;9.962;2022-08-20T00:00:40;5.13;;;4.63;;
6306;SDS011;3186;54.062;9.962;2022-08-20T00:03:10;7.23;;;5.47;;
6306;SDS011;3186;54.062;9.962;2022-08-20T00:05:50;6.53;;;5.33;;
6306;SDS011;3186;54.062;9.962;2022-08-20T00:08:19;5.47;;;4.93;;
6306;SDS011;3186;54.062;9.962;2022-08-20T00:10:48;5.50;;;5.00;;
6306;SDS011;3186;54.062;9.962;2022-08-20T00:13:21;6.07;;;4.67;;
6306;SDS011;3186;54.062;9.962;2022-08-20T00:15:49;5.40;;;4.90;;
6306;SDS011;3186;54.062;9.962;2022-08-20T00:18:16;6.00;;;5.03;;
6306;SDS011;3186;54.062;9.962;2022-08-20T00:20:45;5.97;;;4.47;;
6306;SDS011;3186;54.062;9.962;2022-08-20T00:23:13;5.50;;;4.90;;
6306;SDS011;3186;54.062;9.962;2022-08-20T00:25:40;5.43;;;4.33;;
6306;SDS011;3186;54.062;9.962;2022-08-20T00:28:07;5.30;;;4.70;;
6306;SDS011;3186;54.062;9.962;2022-08-20T00:30:33;5.43;;;4.93;;
6306;SDS011;3186;54.062;9.962;2022-08-20T00:33:03;5.33;;;4.67;;
6306;SDS011;3186;54.062;9.962;2022-08-20T00:35:33;5.73;;;4.10;;
6306;SDS011;3186;54.062;9.962;2022-08-20T00:38:02;4.60;;;4.20;;
6306;SDS011;3186;54.062;9.962;2022-08-20T00:40:29;6.40;;;5.03;;
6306;SDS011;3186;54.062;9.962;2022-08-20T00:46:20;5.63;;;5.13;;
6306;SDS011;3186;54.062;9.962;2022-08-20T00:48:50;4.43;;;4.03;;
6306;SDS011;3186;54.062;9.962;2022-08-20T00:53:46;4.60;;;4.20;;
6306;SDS011;3186;54.062;9.962;2022-08-20T00:56:12;7.07;;;4.70;;
6306;SDS011;3186;54.062;9.962;2022-08-20T00:58:38;5.23;;;4.50;;
6306;SDS011;3186;54.062;9.962;2022-08-20T01:01:06;5.80;;;5.03;;
6306;SDS011;3186;54.062;9.962;2022-08-20T01:03:33;5.17;;;4.57;;
6306;SDS011;3186;54.062;9.962;2022-08-20T01:05:59;5.10;;;4.50;;
6306;SDS011;3186;54.062;9.962;2022-08-20T01:08:25;5.70;;;5.10;;
6306;SDS011;3186;54.062;9.962;2022-08-20T01:10:52;6.80;;;5.13;;
6306;SDS011;3186;54.062;9.962;2022-08-20T01:13:32;6.47;;;4.83;;
6306;SDS011;3186;54.062;9.962;2022-08-20T01:16:02;6.23;;;4.43;;
6306;SDS011;3186;54.062;9.962;2022-08-20T01:18:34;7.33;;;4.60;;
6306;SDS011;3186;54.062;9.962;2022-08-20T01:21:02;5.27;;;4.80;;
6306;SDS011;3186;54.062;9.962;2022-08-20T01:23:35;5.77;;;4.60;;
6306;SDS011;3186;54.062;9.962;2022-08-20T01:26:38;5.27;;;4.47;;
6306;SDS011;3186;54.062;9.962;2022-08-20T01:29:08;6.57;;;5.23;;
6306;SDS011;3186;54.062;9.962;2022-08-20T01:31:40;5.23;;;4.50;;
6306;SDS011;3186;54.062;9.962;2022-08-20T01:34:09;5.20;;;4.70;;
6306;SDS011;3186;54.062;9.962;2022-08-20T01:36:39;7.20;;;4.77;;
6306;SDS011;3186;54.062;9.962;2022-08-20T01:39:09;6.10;;;4.97;;
6306;SDS011;3186;54.062;9.962;2022-08-20T01:44:10;5.70;;;5.10;;
6306;SDS011;3186;54.062;9.962;2022-08-20T01:46:38;5.10;;;4.60;;
6306;SDS011;3186;54.062;9.962;2022-08-20T01:49:10;5.53;;;5.03;;
6306;SDS011;3186;54.062;9.962;2022-08-20T01:51:45;7.00;;;5.00;;
6306;SDS011;3186;54.062;9.962;2022-08-20T01:54:12;5.50;;;5.00;;
6306;SDS011;3186;54.062;9.962;2022-08-20T01:56:49;6.80;;;4.70;;
6306;SDS011;3186;54.062;9.962;2022-08-20T01:59:17;5.97;;;5.03;;
6306;SDS011;3186;54.062;9.962;2022-08-20T02:01:43;6.13;;;5.03;;
6306;SDS011;3186;54.062;9.962;2022-08-20T02:04:09;5.93;;;5.20;;
6306;SDS011;3186;54.062;9.962;2022-08-20T02:06:37;5.73;;;4.87;;
6306;SDS011;3186;54.062;9.962;2022-08-20T02:09:08;7.37;;;5.37;;
6306;SDS011;3186;54.062;9.962;2022-08-20T02:11:35;7.70;;;5.33;;
6306;SDS011;3186;54.062;9.962;2022-08-20T02:14:02;6.13;;;5.50;;
6306;SDS011;3186;54.062;9.962;2022-08-20T02:16:32;5.63;;;5.00;;
6306;SDS011;3186;54.062;9.962;2022-08-20T02:19:03;7.20;;;5.10;;
6306;SDS011;3186;54.062;9.962;2022-08-20T02:21:38;6.90;;;5.20;;
6306;SDS011;3186;54.062;9.962;2022-08-20T02:24:07;4.83;;;4.43;;
6306;SDS011;3186;54.062;9.962;2022-08-20T02:26:34;5.90;;;5.30;;
6306;SDS011;3186;54.062;9.962;2022-08-20T02:29:04;4.70;;;4.30;;
6306;SDS011;3186;54.062;9.962;2022-08-20T02:31:32;6.43;;;4.77;;
6306;SDS011;3186;54.062;9.962;2022-08-20T02:33:58;7.53;;;5.10;;
6306;SDS011;3186;54.062;9.962;2022-08-20T02:36:24;6.50;;;4.90;;
6306;SDS011;3186;54.062;9.962;2022-08-20T02:38:51;6.57;;;4.90;;
6306;SDS011;3186;54.062;9.962;2022-08-20T02:41:17;6.27;;;4.70;;
6306;SDS011;3186;54.062;9.962;2022-08-20T02:43:46;5.80;;;5.20;;
6306;SDS011;3186;54.062;9.962;2022-08-20T02:46:15;6.43;;;4.60;;
6306;SDS011;3186;54.062;9.962;2022-08-20T02:48:43;5.03;;;4.53;;
6306;SDS011;3186;54.062;9.962;2022-08-20T02:51:09;5.93;;;4.77;;
6306;SDS011;3186;54.062;9.962;2022-08-20T02:53:37;5.87;;;5.07;;
6306;SDS011;3186;54.062;9.962;2022-08-20T02:56:06;5.60;;;4.80;;
6306;SDS011;3186;54.062;9.962;2022-08-20T02:58:34;4.43;;;4.03;;
6306;SDS011;3186;54.062;9.962;2022-08-20T03:01:01;5.13;;;4.63;;
6306;SDS011;3186;54.062;9.962;2022-08-20T03:03:30;5.00;;;4.47;;
6306;SDS011;3186;54.062;9.962;2022-08-20T03:05:57;5.57;;;5.07;;
6306;SDS011;3186;54.062;9.962;2022-08-20T03:08:24;5.60;;;4.47;;
6306;SDS011;3186;54.062;9.962;2022-08-20T03:10:51;4.97;;;4.53;;
6306;SDS011;3186;54.062;9.962;2022-08-20T03:13:18;7.90;;;4.37;;
6306;SDS011;3186;54.062;9.962;2022-08-20T03:15:47;6.30;;;4.83;;
6306;SDS011;3186;54.062;9.962;2022-08-20T03:18:15;6.10;;;4.70;;
6306;SDS011;3186;54.062;9.962;2022-08-20T03:20:42;6.27;;;4.60;;
6306;SDS011;3186;54.062;9.962;2022-08-20T03:23:09;6.00;;;4.10;;
6306;SDS011;3186;54.062;9.962;2022-08-20T03:25:35;5.80;;;4.63;;
6306;SDS011;3186;54.062;9.962;2022-08-20T03:28:01;5.17;;;4.50;;
6306;SDS011;3186;54.062;9.962;2022-08-20T03:30:28;7.47;;;5.37;;
6306;SDS011;3186;54.062;9.962;2022-08-20T03:32:55;6.70;;;5.37;;
6306;SDS011;3186;54.062;9.962;2022-08-20T03:35:22;5.73;;;5.03;;
6306;SDS011;3186;54.062;9.962;2022-08-20T03:37:49;7.20;;;5.17;;
6306;SDS011;3186;54.062;9.962;2022-08-20T03:40:18;7.80;;;5.10;;
6306;SDS011;3186;54.062;9.962;2022-08-20T03:42:46;5.57;;;4.90;;
6306;SDS011;3186;54.062;9.962;2022-08-20T03:45:12;5.13;;;4.63;;
6306;SDS011;3186;54.062;9.962;2022-08-20T03:47:39;6.17;;;5.20;;
6306;SDS011;3186;54.062;9.962;2022-08-20T03:50:06;6.40;;;4.60;;
6306;SDS011;3186;54.062;9.962;2022-08-20T03:52:37;5.20;;;4.70;;
6306;SDS011;3186;54.062;9.962;2022-08-20T03:55:05;5.47;;;4.40;;
6306;SDS011;3186;54.062;9.962;2022-08-20T03:57:33;6.47;;;4.37;;
6306;SDS011;3186;54.062;9.962;2022-08-20T04:00:00;5.40;;;4.90;;
6306;SDS011;3186;54.062;9.962;2022-08-20T04:02:36;5.57;;;5.03;;
6306;SDS011;3186;54.062;9.962;2022-08-20T04:05:02;8.70;;;4.87;;
6306;SDS011;3186;54.062;9.962;2022-08-20T04:07:29;6.47;;;5.00;;
6306;SDS011;3186;54.062;9.962;2022-08-20T04:09:55;4.80;;;4.40;;
6306;SDS011;3186;54.062;9.962;2022-08-20T04:12:21;6.07;;;5.13;;
6306;SDS011;3186;54.062;9.962;2022-08-20T04:14:49;5.90;;;5.10;;
6306;SDS011;3186;54.062;9.962;2022-08-20T04:17:17;5.07;;;4.57;;
6306;SDS011;3186;54.062;9.962;2022-08-20T04:19:44;6.37;;;5.27;;
6306;SDS011;3186;54.062;9.962;2022-08-20T04:22:11;6.43;;;5.17;;
6306;SDS011;3186;54.062;9.962;2022-08-20T04:24:39;5.97;;;5.10;;
6306;SDS011;3186;54.062;9.962;2022-08-20T04:27:05;8.27;;;5.07;;
6306;SDS011;3186;54.062;9.962;2022-08-20T04:29:33;8.07;;;5.50;;
6306;SDS011;3186;54.062;9.962;2022-08-20T04:32:00;5.53;;;4.97;;
6306;SDS011;3186;54.062;9.962;2022-08-20T04:34:30;8.40;;;5.10;;
6306;SDS011;3186;54.062;9.962;2022-08-20T04:36:56;7.83;;;5.63;;
6306;SDS011;3186;54.062;9.962;2022-08-20T04:39:22;7.90;;;5.40;;
6306;SDS011;3186;54.062;9.962;2022-08-20T04:41:48;5.70;;;4.93;;
6306;SDS011;3186;54.062;9.962;2022-08-20T04:44:13;7.33;;;5.23;;
6306;SDS011;3186;54.062;9.962;2022-08-20T04:46:39;6.20;;;5.10;;
6306;SDS011;3186;54.062;9.962;2022-08-20T04:49:06;6.07;;;5.47;;
6306;SDS011;3186;54.062;9.962;2022-08-20T04:51:32;7.80;;;4.90;;
6306;SDS011;3186;54.062;9.962;2022-08-20T04:53:58;5.60;;;5.10;;
6306;SDS011;3186;54.062;9.962;2022-08-20T04:56:29;5.90;;;5.20;;
6306;SDS011;3186;54.062;9.962;2022-08-20T04:58:59;7.50;;;5.30;;
6306;SDS011;3186;54.062;9.962;2022-08-20T05:01:26;7.23;;;5.63;;
6306;SDS011;3186;54.062;9.962;2022-08-20T05:03:52;6.93;;;5.00;;
6306;SDS011;3186;54.062;9.962;2022-08-20T05:06:20;6.13;;;4.80;;
6306;SDS011;3186;54.062;9.962;2022-08-20T05:08:49;7.77;;;5.53;;
6306;SDS011;3186;54.062;9.962;2022-08-20T05:11:16;6.13;;;5.43;;
6306;SDS011;3186;54.062;9.962;2022-08-20T05:13:46;6.10;;;5.50;;
6306;SDS011;3186;54.062;9.962;2022-08-20T05:16:12;7.43;;;5.20;;
6306;SDS011;3186;54.062;9.962;2022-08-20T05:18:41;6.53;;;5.87;;
6306;SDS011;3186;54.062;9.962;2022-08-20T05:21:08;7.27;;;6.23;;
6306;SDS011;3186;54.062;9.962;2022-08-20T05:23:35;7.53;;;5.93;;
6306;SDS011;3186;54.062;9.962;2022-08-20T05:26:03;8.93;;;6.17;;
6306;SDS011;3186;54.062;9.962;2022-08-20T05:28:32;6.87;;;6.07;;
6306;SDS011;3186;54.062;9.962;2022-08-20T05:30:59;7.80;;;6.60;;
6306;SDS011;3186;54.062;9.962;2022-08-20T05:33:26;7.40;;;5.37;;
6306;SDS011;3186;54.062;9.962;2022-08-20T05:35:54;6.43;;;5.77;;
6306;SDS011;3186;54.062;9.962;2022-08-20T05:38:22;7.63;;;5.97;;
6306;SDS011;3186;54.062;9.962;2022-08-20T05:40:50;6.67;;;5.50;;
6306;SDS011;3186;54.062;9.962;2022-08-20T05:43:17;5.67;;;5.17;;
6306;SDS011;3186;54.062;9.962;2022-08-20T05:45:44;9.60;;;5.97;;
6306;SDS011;3186;54.062;9.962;2022-08-20T05:48:17;7.13;;;5.93;;
6306;SDS011;3186;54.062;9.962;2022-08-20T05:50:45;7.67;;;6.87;;
6306;SDS011;3186;54.062;9.962;2022-08-20T05:53:13;15.37;;;11.43;;
6306;SDS011;3186;54.062;9.962;2022-08-20T05:55:40;17.37;;;11.63;;
6306;SDS011;3186;54.062;9.962;2022-08-20T05:58:08;13.80;;;10.37;;
6306;SDS011;3186;54.062;9.962;2022-08-20T06:00:49;7.53;;;5.90;;
6306;SDS011;3186;54.062;9.962;2022-08-20T06:03:16;14.30;;;10.67;;
6306;SDS011;3186;54.062;9.962;2022-08-20T06:06:00;15.97;;;11.87;;
6306;SDS011;3186;54.062;9.962;2022-08-20T06:08:28;10.90;;;8.43;;
6306;SDS011;3186;54.062;9.962;2022-08-20T06:10:55;12.27;;;10.93;;
6306;SDS011;3186;54.062;9.962;2022-08-20T06:13:21;9.83;;;7.37;;
6306;SDS011;3186;54.062;9.962;2022-08-20T06:15:47;7.43;;;5.57;;
6306;SDS011;3186;54.062;9.962;2022-08-20T06:18:13;10.03;;;7.23;;
6306;SDS011;3186;54.062;9.962;2022-08-20T06:20:39;8.13;;;7.33;;
6306;SDS011;3186;54.062;9.962;2022-08-20T06:23:05;10.50;;;9.40;;
6306;SDS011;3186;54.062;9.962;2022-08-20T06:25:32;10.60;;;9.20;;
6306;SDS011;3186;54.062;9.962;2022-08-20T06:28:03;12.17;;;9.37;;
6306;SDS011;3186;54.062;9.962;2022-08-20T06:30:29;10.90;;;9.67;;
6306;SDS011;3186;54.062;9.962;2022-08-20T06:32:55;9.93;;;7.43;;
6306;SDS011;3186;54.062;9.962;2022-08-20T06:35:20;7.63;;;6.60;;
6306;SDS011;3186;54.062;9.962;2022-08-20T06:37:47;8.00;;;6.50;;
6306;SDS011;3186;54.062;9.962;2022-08-20T06:40:14;6.67;;;5.10;;
6306;SDS011;3186;54.062;9.962;2022-08-20T06:42:44;9.03;;;7.27;;
6306;SDS011;3186;54.062;9.962;2022-08-20T06:45:14;6.83;;;5.60;;
6306;SDS011;3186;54.062;9.962;2022-08-20T06:47:47;6.17;;;5.53;;
6306;SDS011;3186;54.062;9.962;2022-08-20T06:50:15;8.40;;;7.53;;
6306;SDS011;3186;54.062;9.962;2022-08-20T06:52:43;9.93;;;7.10;;
6306;SDS011;3186;54.062;9.962;2022-08-20T06:55:11;6.37;;;5.47;;
6306;SDS011;3186;54.062;9.962;2022-08-20T06:57:38;5.80;;;5.23;;
6306;SDS011;3186;54.062;9.962;2022-08-20T07:00:16;6.63;;;4.40;;
6306;SDS011;3186;54.062;9.962;2022-08-20T07:02:43;8.33;;;5.93;;
6306;SDS011;3186;54.062;9.962;2022-08-20T07:05:11;11.23;;;7.33;;
6306;SDS011;3186;54.062;9.962;2022-08-20T07:07:37;5.20;;;4.63;;
6306;SDS011;3186;54.062;9.962;2022-08-20T07:10:04;5.57;;;5.07;;
6306;SDS011;3186;54.062;9.962;2022-08-20T07:12:35;5.43;;;4.80;;
6306;SDS011;3186;54.062;9.962;2022-08-20T07:15:05;6.73;;;5.07;;
6306;SDS011;3186;54.062;9.962;2022-08-20T07:17:32;7.57;;;5.07;;
6306;SDS011;3186;54.062;9.962;2022-08-20T07:20:02;7.90;;;4.80;;
6306;SDS011;3186;54.062;9.962;2022-08-20T07:22:35;4.43;;;3.93;;
6306;SDS011;3186;54.062;9.962;2022-08-20T07:25:04;7.63;;;5.07;;
6306;SDS011;3186;54.062;9.962;2022-08-20T07:27:33;8.10;;;4.70;;
6306;SDS011;3186;54.062;9.962;2022-08-20T07:29:59;6.40;;;5.13;;
6306;SDS011;3186;54.062;9.962;2022-08-20T07:32:45;5.33;;;3.93;;
6306;SDS011;3186;54.062;9.962;2022-08-20T07:35:14;7.50;;;4.53;;
6306;SDS011;3186;54.062;9.962;2022-08-20T07:37:43;5.67;;;4.90;;
6306;SDS011;3186;54.062;9.962;2022-08-20T07:40:13;7.37;;;4.40;;
6306;SDS011;3186;54.062;9.962;2022-08-20T07:42:45;4.10;;;3.70;;
6306;SDS011;3186;54.062;9.962;2022-08-20T07:45:12;5.70;;;4.47;;
6306;SDS011;3186;54.062;9.962;2022-08-20T07:47:39;7.80;;;5.03;;
6306;SDS011;3186;54.062;9.962;2022-08-20T07:50:08;5.03;;;4.50;;
6306;SDS011;3186;54.062;9.962;2022-08-20T07:52:35;6.97;;;4.80;;
6306;SDS011;3186;54.062;9.962;2022-08-20T07:55:02;4.40;;;4.00;;
6306;SDS011;3186;54.062;9.962;2022-08-20T07:57:34;6.60;;;4.50;;
6306;SDS011;3186;54.062;9.962;2022-08-20T08:00:00;4.40;;;3.43;;
6306;SDS011;3186;54.062;9.962;2022-08-20T08:02:34;3.27;;;2.87;;
6306;SDS011;3186;54.062;9.962;2022-08-20T08:05:01;6.10;;;3.70;;
6306;SDS011;3186;54.062;9.962;2022-08-20T08:07:27;3.70;;;3.10;;
6306;SDS011;3186;54.062;9.962;2022-08-20T08:09:54;6.67;;;3.67;;
6306;SDS011;3186;54.062;9.962;2022-08-20T08:12:21;5.87;;;3.30;;
6306;SDS011;3186;54.062;9.962;2022-08-20T08:14:50;7.97;;;3.57;;
6306;SDS011;3186;54.062;9.962;2022-08-20T08:17:16;5.13;;;2.93;;
6306;SDS011;3186;54.062;9.962;2022-08-20T08:19:46;4.17;;;2.60;;
6306;SDS011;3186;54.062;9.962;2022-08-20T08:22:14;5.50;;;2.57;;
6306;SDS011;3186;54.062;9.962;2022-08-20T08:24:43;3.53;;;2.27;;
6306;SDS011;3186;54.062;9.962;2022-08-20T08:27:14;3.53;;;2.53;;
6306;SDS011;3186;54.062;9.962;2022-08-20T08:29:44;4.43;;;2.40;;
6306;SDS011;3186;54.062;9.962;2022-08-20T08:32:10;3.57;;;2.30;;
6306;SDS011;3186;54.062;9.962;2022-08-20T08:34:36;4.63;;;2.40;;
6306;SDS011;3186;54.062;9.962;2022-08-20T08:37:03;2.87;;;2.27;;
6306;SDS011;3186;54.062;9.962;2022-08-20T08:39:31;4.13;;;2.40;;
6306;SDS011;3186;54.062;9.962;2022-08-20T08:41:58;7.50;;;2.90;;
6306;SDS011;3186;54.062;9.962;2022-08-20T08:44:38;6.87;;;2.47;;
6306;SDS011;3186;54.062;9.962;2022-08-20T08:47:06;5.10;;;2.20;;
6306;SDS011;3186;54.062;9.962;2022-08-20T08:49:42;8.40;;;2.50;;
6306;SDS011;3186;54.062;9.962;2022-08-20T08:52:11;4.00;;;2.13;;
6306;SDS011;3186;54.062;9.962;2022-08-20T08:54:45;5.07;;;2.60;;
6306;SDS011;3186;54.062;9.962;2022-08-20T08:57:20;3.97;;;1.80;;
6306;SDS011;3186;54.062;9.962;2022-08-20T08:59:54;3.50;;;2.43;;
6306;SDS011;3186;54.062;9.962;2022-08-20T09:02:24;5.53;;;2.30;;
6306;SDS011;3186;54.062;9.962;2022-08-20T09:04:51;8.00;;;2.60;;
6306;SDS011;3186;54.062;9.962;2022-08-20T09:07:20;2.93;;;2.00;;
6306;SDS011;3186;54.062;9.962;2022-08-20T09:09:49;3.53;;;2.43;;
6306;SDS011;3186;54.062;9.962;2022-08-20T09:12:17;3.13;;;2.27;;
6306;SDS011;3186;54.062;9.962;2022-08-20T09:14:48;6.90;;;3.33;;
6306;SDS011;3186;54.062;9.962;2022-08-20T09:17:15;4.87;;;2.90;;
6306;SDS011;3186;54.062;9.962;2022-08-20T09:19:42;3.53;;;2.40;;
6306;SDS011;3186;54.062;9.962;2022-08-20T09:22:09;4.97;;;2.40;;
6306;SDS011;3186;54.062;9.962;2022-08-20T09:24:42;6.43;;;2.90;;
6306;SDS011;3186;54.062;9.962;2022-08-20T09:27:08;6.63;;;2.80;;
6306;SDS011;3186;54.062;9.962;2022-08-20T09:29:35;6.40;;;2.97;;
6306;SDS011;3186;54.062;9.962;2022-08-20T09:32:02;5.43;;;2.53;;
6306;SDS011;3186;54.062;9.962;2022-08-20T09:34:29;6.33;;;2.70;;
6306;SDS011;3186;54.062;9.962;2022-08-20T09:36:58;5.33;;;2.63;;
6306;SDS011;3186;54.062;9.962;2022-08-20T09:39:24;6.27;;;2.63;;
6306;SDS011;3186;54.062;9.962;2022-08-20T09:41:50;9.17;;;2.10;;
6306;SDS011;3186;54.062;9.962;2022-08-20T09:44:16;5.97;;;2.70;;
6306;SDS011;3186;54.062;9.962;2022-08-20T09:46:41;7.93;;;2.50;;
6306;SDS011;3186;54.062;9.962;2022-08-20T09:49:07;6.50;;;2.43;;
6306;SDS011;3186;54.062;9.962;2022-08-20T09:54:02;7.37;;;2.40;;
6306;SDS011;3186;54.062;9.962;2022-08-20T09:56:29;6.23;;;2.50;;
6306;SDS011;3186;54.062;9.962;2022-08-20T09:58:57;4.23;;;2.00;;
6306;SDS011;3186;54.062;9.962;2022-08-20T10:01:23;5.80;;;2.10;;
6306;SDS011;3186;54.062;9.962;2022-08-20T10:03:49;7.20;;;1.97;;
6306;SDS011;3186;54.062;9.962;2022-08-20T10:06:16;8.53;;;2.50;;
6306;SDS011;3186;54.062;9.962;2022-08-20T10:08:44;6.37;;;2.27;;
6306;SDS011;3186;54.062;9.962;2022-08-20T10:11:10;5.97;;;2.17;;
6306;SDS011;3186;54.062;9.962;2022-08-20T10:13:36;6.73;;;2.37;;
6306;SDS011;3186;54.062;9.962;2022-08-20T10:16:02;6.03;;;1.97;;
6306;SDS011;3186;54.062;9.962;2022-08-20T10:18:28;4.93;;;2.20;;
6306;SDS011;3186;54.062;9.962;2022-08-20T10:20:54;6.60;;;2.40;;
6306;SDS011;3186;54.062;9.962;2022-08-20T10:23:20;5.07;;;2.20;;
6306;SDS011;3186;54.062;9.962;2022-08-20T10:25:45;7.47;;;2.00;;
6306;SDS011;3186;54.062;9.962;2022-08-20T10:28:11;7.57;;;2.40;;
6306;SDS011;3186;54.062;9.962;2022-08-20T10:30:37;7.87;;;2.50;;
6306;SDS011;3186;54.062;9.962;2022-08-20T10:33:02;9.50;;;2.33;;
6306;SDS011;3186;54.062;9.962;2022-08-20T10:35:28;5.80;;;1.93;;
6306;SDS011;3186;54.062;9.962;2022-08-20T10:37:54;5.27;;;2.23;;
6306;SDS011;3186;54.062;9.962;2022-08-20T10:40:20;6.07;;;2.03;;
6306;SDS011;3186;54.062;9.962;2022-08-20T10:42:46;5.10;;;2.07;;
6306;SDS011;3186;54.062;9.962;2022-08-20T10:45:13;4.77;;;1.83;;
6306;SDS011;3186;54.062;9.962;2022-08-20T10:47:40;4.57;;;1.73;;
6306;SDS011;3186;54.062;9.962;2022-08-20T10:50:08;4.50;;;1.93;;
6306;SDS011;3186;54.062;9.962;2022-08-20T10:52:36;6.57;;;1.93;;
6306;SDS011;3186;54.062;9.962;2022-08-20T10:55:02;3.33;;;2.00;;
6306;SDS011;3186;54.062;9.962;2022-08-20T10:57:29;4.97;;;1.93;;
6306;SDS011;3186;54.062;9.962;2022-08-20T10:59:56;5.03;;;1.60;;
6306;SDS011;3186;54.062;9.962;2022-08-20T11:02:23;5.77;;;1.70;;
6306;SDS011;3186;54.062;9.962;2022-08-20T11:04:50;4.80;;;1.70;;
6306;SDS011;3186;54.062;9.962;2022-08-20T11:07:17;4.77;;;1.70;;
6306;SDS011;3186;54.062;9.962;2022-08-20T11:09:44;5.87;;;2.00;;
6306;SDS011;3186;54.062;9.962;2022-08-20T11:12:11;5.23;;;1.90;;
6306;SDS011;3186;54.062;9.962;2022-08-20T11:14:37;5.43;;;1.80;;
6306;SDS011;3186;54.062;9.962;2022-08-20T11:17:03;3.60;;;1.50;;
6306;SDS011;3186;54.062;9.962;2022-08-20T11:19:30;4.10;;;1.80;;
6306;SDS011;3186;54.062;9.962;2022-08-20T11:21:56;2.87;;;1.53;;
6306;SDS011;3186;54.062;9.962;2022-08-20T11:24:22;6.47;;;1.70;;
6306;SDS011;3186;54.062;9.962;2022-08-20T11:26:48;3.90;;;1.40;;
6306;SDS011;3186;54.062;9.962;2022-08-20T11:29:15;5.77;;;1.70;;
6306;SDS011;3186;54.062;9.962;2022-08-20T11:31:41;2.97;;;1.60;;
6306;SDS011;3186;54.062;9.962;2022-08-20T11:34:07;4.77;;;2.00;;
6306;SDS011;3186;54.062;9.962;2022-08-20T11:36:33;4.37;;;1.17;;
6306;SDS011;3186;54.062;9.962;2022-08-20T11:39:00;3.83;;;1.13;;
6306;SDS011;3186;54.062;9.962;2022-08-20T11:41:26;5.00;;;1.77;;
6306;SDS011;3186;54.062;9.962;2022-08-20T11:43:52;3.60;;;1.50;;
6306;SDS011;3186;54.062;9.962;2022-08-20T11:46:17;3.43;;;1.60;;
6306;SDS011;3186;54.062;9.962;2022-08-20T11:48:43;3.10;;;1.30;;
6306;SDS011;3186;54.062;9.962;2022-08-20T11:51:09;5.93;;;1.50;;
6306;SDS011;3186;54.062;9.962;2022-08-20T11:53:35;3.97;;;1.60;;
6306;SDS011;3186;54.062;9.962;2022-08-20T11:56:00;2.90;;;1.40;;
6306;SDS011;3186;54.062;9.962;2022-08-20T11:58:26;5.40;;;1.50;;
6306;SDS011;3186;54.062;9.962;2022-08-20T12:00:52;5.90;;;1.73;;
6306;SDS011;3186;54.062;9.962;2022-08-20T12:03:18;6.03;;;1.63;;
6306;SDS011;3186;54.062;9.962;2022-08-20T12:05:44;2.93;;;1.40;;
6306;SDS011;3186;54.062;9.962;2022-08-20T12:08:11;3.20;;;1.60;;
6306;SDS011;3186;54.062;9.962;2022-08-20T12:10:38;3.77;;;1.60;;
6306;SDS011;3186;54.062;9.962;2022-08-20T12:13:05;3.67;;;1.50;;
6306;SDS011;3186;54.062;9.962;2022-08-20T12:15:34;4.23;;;1.70;;
6306;SDS011;3186;54.062;9.962;2022-08-20T12:18:04;4.50;;;1.40;;
6306;SDS011;3186;54.062;9.962;2022-08-20T12:20:33;2.73;;;1.13;;
6306;SDS011;3186;54.062;9.962;2022-08-20T12:22:59;4.20;;;1.60;;
6306;SDS011;3186;54.062;9.962;2022-08-20T12:25:25;3.03;;;1.37;;
6306;SDS011;3186;54.062;9.962;2022-08-20T12:27:51;4.20;;;1.60;;
6306;SDS011;3186;54.062;9.962;2022-08-20T12:30:18;4.00;;;1.47;;
6306;SDS011;3186;54.062;9.962;2022-08-20T12:32:45;2.77;;;1.30;;
6306;SDS011;3186;54.062;9.962;2022-08-20T12:35:12;7.10;;;1.53;;
6306;SDS011;3186;54.062;9.962;2022-08-20T12:37:39;3.93;;;1.60;;
6306;SDS011;3186;54.062;9.962;2022-08-20T12:40:08;5.23;;;1.50;;
6306;SDS011;3186;54.062;9.962;2022-08-20T12:42:36;5.03;;;1.50;;
6306;SDS011;3186;54.062;9.962;2022-08-20T12:45:02;4.73;;;1.60;;
6306;SDS011;3186;54.062;9.962;2022-08-20T12:47:33;3.23;;;1.50;;
6306;SDS011;3186;54.062;9.962;2022-08-20T12:50:08;3.47;;;1.27;;
6306;SDS011;3186;54.062;9.962;2022-08-20T12:52:42;4.63;;;1.60;;
6306;SDS011;3186;54.062;9.962;2022-08-20T12:55:09;4.80;;;1.30;;
6306;SDS011;3186;54.062;9.962;2022-08-20T12:57:37;6.03;;;1.43;;
6306;SDS011;3186;54.062;9.962;2022-08-20T13:02:32;6.47;;;1.57;;
6306;SDS011;3186;54.062;9.962;2022-08-20T13:04:58;4.07;;;1.63;;
6306;SDS011;3186;54.062;9.962;2022-08-20T13:07:23;4.77;;;1.20;;
6306;SDS011;3186;54.062;9.962;2022-08-20T13:09:49;3.37;;;1.50;;
6306;SDS011;3186;54.062;9.962;2022-08-20T13:12:15;3.37;;;1.23;;
6306;SDS011;3186;54.062;9.962;2022-08-20T13:14:41;4.53;;;1.40;;
6306;SDS011;3186;54.062;9.962;2022-08-20T13:17:07;2.27;;;1.00;;
6306;SDS011;3186;54.062;9.962;2022-08-20T13:19:34;3.93;;;1.47;;
6306;SDS011;3186;54.062;9.962;2022-08-20T13:22:01;3.87;;;1.47;;
6306;SDS011;3186;54.062;9.962;2022-08-20T13:24:27;6.07;;;1.50;;
6306;SDS011;3186;54.062;9.962;2022-08-20T13:27:02;4.07;;;1.20;;
6306;SDS011;3186;54.062;9.962;2022-08-20T13:29:29;4.80;;;1.60;;
6306;SDS011;3186;54.062;9.962;2022-08-20T13:31:55;3.13;;;1.40;;
6306;SDS011;3186;54.062;9.962;2022-08-20T13:34:20;3.60;;;1.80;;
6306;SDS011;3186;54.062;9.962;2022-08-20T13:36:46;3.90;;;1.57;;
6306;SDS011;3186;54.062;9.962;2022-08-20T13:39:12;4.07;;;1.87;;
6306;SDS011;3186;54.062;9.962;2022-08-20T13:41:37;4.60;;;1.30;;
6306;SDS011;3186;54.062;9.962;2022-08-20T13:44:03;5.63;;;1.80;;
6306;SDS011;3186;54.062;9.962;2022-08-20T13:46:29;3.23;;;1.40;;
6306;SDS011;3186;54.062;9.962;2022-08-20T13:48:55;6.90;;;1.80;;
6306;SDS011;3186;54.062;9.962;2022-08-20T13:51:20;3.43;;;1.27;;
6306;SDS011;3186;54.062;9.962;2022-08-20T13:53:46;3.97;;;1.70;;
6306;SDS011;3186;54.062;9.962;2022-08-20T13:56:12;5.00;;;1.70;;
6306;SDS011;3186;54.062;9.962;2022-08-20T13:58:38;2.47;;;1.40;;
6306;SDS011;3186;54.062;9.962;2022-08-20T14:01:03;4.17;;;1.50;;
6306;SDS011;3186;54.062;9.962;2022-08-20T14:03:29;4.03;;;1.70;;
6306;SDS011;3186;54.062;9.962;2022-08-20T14:05:55;4.90;;;2.10;;
6306;SDS011;3186;54.062;9.962;2022-08-20T14:08:21;3.03;;;1.50;;
6306;SDS011;3186;54.062;9.962;2022-08-20T14:10:48;3.37;;;1.33;;
6306;SDS011;3186;54.062;9.962;2022-08-20T14:13:18;5.70;;;1.50;;
6306;SDS011;3186;54.062;9.962;2022-08-20T14:15:45;4.77;;;1.63;;
6306;SDS011;3186;54.062;9.962;2022-08-20T14:18:13;5.60;;;1.80;;
6306;SDS011;3186;54.062;9.962;2022-08-20T14:20:40;4.17;;;1.60;;
6306;SDS011;3186;54.062;9.962;2022-08-20T14:23:07;7.80;;;2.20;;
6306;SDS011;3186;54.062;9.962;2022-08-20T14:25:33;5.77;;;1.70;;
6306;SDS011;3186;54.062;9.962;2022-08-20T14:28:07;6.40;;;1.57;;
6306;SDS011;3186;54.062;9.962;2022-08-20T14:30:43;4.67;;;1.47;;
6306;SDS011;3186;54.062;9.962;2022-08-20T14:33:10;4.93;;;1.87;;
6306;SDS011;3186;54.062;9.962;2022-08-20T14:35:36;5.43;;;1.90;;
6306;SDS011;3186;54.062;9.962;2022-08-20T14:38:02;4.60;;;2.00;;
6306;SDS011;3186;54.062;9.962;2022-08-20T14:40:28;5.50;;;1.87;;
6306;SDS011;3186;54.062;9.962;2022-08-20T14:42:54;4.17;;;1.83;;
6306;SDS011;3186;54.062;9.962;2022-08-20T14:45:20;4.23;;;1.43;;
6306;SDS011;3186;54.062;9.962;2022-08-20T14:47:52;2.83;;;1.40;;
6306;SDS011;3186;54.062;9.962;2022-08-20T14:50:22;3.23;;;1.37;;
6306;SDS011;3186;54.062;9.962;2022-08-20T14:52:53;4.20;;;1.90;;
6306;SDS011;3186;54.062;9.962;2022-08-20T14:55:21;3.30;;;1.27;;
6306;SDS011;3186;54.062;9.962;2022-08-20T14:57:48;6.03;;;2.10;;
6306;SDS011;3186;54.062;9.962;2022-08-20T15:00:16;5.83;;;1.60;;
6306;SDS011;3186;54.062;9.962;2022-08-20T15:02:44;4.90;;;1.90;;
6306;SDS011;3186;54.062;9.962;2022-08-20T15:05:11;5.03;;;1.53;;
6306;SDS011;3186;54.062;9.962;2022-08-20T15:07:38;6.07;;;1.93;;
6306;SDS011;3186;54.062;9.962;2022-08-20T15:10:08;3.27;;;1.37;;
6306;SDS011;3186;54.062;9.962;2022-08-20T15:12:38;9.50;;;1.97;;
6306;SDS011;3186;54.062;9.962;2022-08-20T15:15:04;4.70;;;1.80;;
6306;SDS011;3186;54.062;9.962;2022-08-20T15:17:34;5.00;;;1.80;;
6306;SDS011;3186;54.062;9.962;2022-08-20T15:20:01;4.37;;;1.70;;
6306;SDS011;3186;54.062;9.962;2022-08-20T15:22:32;3.93;;;1.53;;
6306;SDS011;3186;54.062;9.962;2022-08-20T15:24:58;3.93;;;1.53;;
6306;SDS011;3186;54.062;9.962;2022-08-20T15:27:24;6.00;;;1.77;;
6306;SDS011;3186;54.062;9.962;2022-08-20T15:29:50;2.97;;;1.50;;
6306;SDS011;3186;54.062;9.962;2022-08-20T15:32:18;3.57;;;1.60;;